Time;durP1;ratioP1;P1;durP2;ratioP2;P2;SDS_P1;SDS_P2;PMS_P1;PMS_P2;Temp;Humidity;BMP_temperature;BMP_pressure;BME280_temperature;BME280_humidity;BME280_pressure;Samples;Min_cycle;Max_cycle;Signal;HPM_P1;HPM_P2
2021/04/22 00:00:07;;;;;;;22.80;3.70;;;;;;;-146.18;100.00;67994.34;9990749;29;20052;-66
2021/04/22 00:05:23;;;;;;;20.60;4.10;;;;;;;-146.18;100.00;67994.34;9987170;29;20143;-65
2021/04/22 00:10:26;;;;;;;17.90;3.83;;;;;;;-146.18;100.00;67994.34;9987927;29;20083;-65
2021/04/22 00:15:22;;;;;;;23.15;3.90;;;;;;;-146.18;100.00;67994.34;9990466;29;20052;-66
2021/04/22 00:20:19;;;;;;;21.90;4.40;;;;;;;-146.18;100.00;67994.34;9983431;29;20056;-66
2021/04/22 00:25:15;;;;;;;25.20;3.20;;;;;;;-146.18;100.00;67994.34;9986844;29;20066;-67
2021/04/22 00:30:14;;;;;;;22.05;3.13;;;;;;;-146.18;100.00;67994.34;9987586;29;20107;-66
2021/04/22 00:35:11;;;;;;;19.83;2.92;;;;;;;-146.18;100.00;67994.34;9991068;29;20079;-66
2021/04/22 00:40:14;;;;;;;25.50;3.20;;;;;;;-146.18;100.00;67994.34;9983982;29;20135;-66
2021/04/22 00:45:11;;;;;;;19.42;2.70;;;;;;;-146.18;100.00;67994.34;9984248;29;20288;-66
2021/04/22 00:50:15;;;;;;;20.08;3.65;;;;;;;-146.18;100.00;67994.34;9979876;29;20044;-66
2021/04/22 00:55:11;;;;;;;19.58;3.78;;;;;;;-146.18;100.00;67994.34;9983567;29;20491;-66
2021/04/22 01:00:17;;;;;;;23.77;3.85;;;;;;;-146.18;100.00;67994.34;9988563;29;20052;-65
2021/04/22 01:05:29;;;;;;;20.73;3.75;;;;;;;-146.18;100.00;67994.34;9991567;29;20051;-66
2021/04/22 01:10:25;;;;;;;21.45;2.95;;;;;;;-146.18;100.00;67994.34;9986002;29;20468;-65
2021/04/22 01:15:24;;;;;;;18.73;3.03;;;;;;;-146.18;100.00;67994.34;9982667;29;20120;-65
2021/04/22 01:20:30;;;;;;;16.98;3.17;;;;;;;-146.18;100.00;67994.34;9988107;29;20059;-66
2021/04/22 01:25:33;;;;;;;14.73;3.33;;;;;;;-146.18;100.00;67994.34;9981617;29;20044;-65
2021/04/22 01:30:32;;;;;;;11.88;2.63;;;;;;;-146.18;100.00;67994.34;9983220;29;20147;-65
2021/04/22 01:35:32;;;;;;;22.13;3.47;;;;;;;-146.18;100.00;67994.34;9980456;29;20048;-66
2021/04/22 01:40:30;;;;;;;22.13;3.80;;;;;;;-146.18;100.00;67994.34;9987378;29;20418;-66
2021/04/22 01:45:26;;;;;;;27.45;3.85;;;;;;;-146.18;100.00;67994.34;9998619;29;20047;-65
2021/04/22 01:50:25;;;;;;;18.45;2.65;;;;;;;-146.18;100.00;67994.34;9991846;29;20087;-65
2021/04/22 01:55:33;;;;;;;19.73;3.67;;;;;;;-146.18;100.00;67994.34;9992840;29;20052;-66
2021/04/22 02:00:35;;;;;;;17.67;2.78;;;;;;;-146.18;100.00;67994.34;9997207;29;20526;-65
2021/04/22 02:05:31;;;;;;;15.95;3.78;;;;;;;-146.18;100.00;67994.34;10005516;29;20940;-66
2021/04/22 02:10:28;;;;;;;18.52;3.17;;;;;;;-146.18;100.00;67994.34;10000419;29;20107;-66
2021/04/22 02:15:27;;;;;;;13.32;2.35;;;;;;;-146.18;100.00;67994.34;9979520;29;20166;-67
2021/04/22 02:20:23;;;;;;;24.83;3.70;;;;;;;-146.18;100.00;67994.34;9987660;29;20060;-65
2021/04/22 02:25:22;;;;;;;20.17;4.13;;;;;;;-146.18;100.00;67994.34;9998708;29;20410;-66
2021/04/22 02:30:23;;;;;;;19.08;3.10;;;;;;;-146.18;100.00;67994.34;9996302;29;20080;-65
2021/04/22 02:35:22;;;;;;;16.38;3.03;;;;;;;-146.18;100.00;67994.34;9998313;29;20075;-66
2021/04/22 02:40:22;;;;;;;19.75;3.08;;;;;;;-146.18;100.00;67994.34;9998547;29;20462;-66
2021/04/22 02:45:23;;;;;;;16.85;2.05;;;;;;;-146.18;100.00;67994.34;9997196;29;20103;-65
2021/04/22 02:50:22;;;;;;;15.18;2.58;;;;;;;-146.18;100.00;67994.34;10000308;29;20048;-67
2021/04/22 02:55:19;;;;;;;18.88;3.28;;;;;;;-146.18;100.00;67994.34;9990000;29;20143;-66
2021/04/22 03:00:35;;;;;;;24.88;2.63;;;;;;;-146.18;100.00;67994.34;9991900;29;20070;-66
2021/04/22 03:05:31;;;;;;;16.33;3.63;;;;;;;-146.18;100.00;67994.34;9997457;29;20055;-66
2021/04/22 03:10:28;;;;;;;13.32;2.38;;;;;;;-146.18;100.00;67994.34;9989147;29;20164;-66
2021/04/22 03:15:24;;;;;;;14.15;2.50;;;;;;;-146.18;100.00;67994.34;9989555;29;20069;-66
2021/04/22 03:20:21;;;;;;;14.73;2.85;;;;;;;-146.18;100.00;67994.34;9990160;29;20052;-66
2021/04/22 03:25:21;;;;;;;15.77;2.67;;;;;;;-146.18;100.00;67994.34;9991291;29;20056;-65
2021/04/22 03:30:18;;;;;;;11.68;2.47;;;;;;;-146.18;100.00;67994.34;9983331;29;20096;-65
2021/04/22 03:35:15;;;;;;;11.90;2.88;;;;;;;-146.18;100.00;67994.34;9987227;29;20534;-65
2021/04/22 03:40:12;;;;;;;16.42;2.70;;;;;;;-146.18;100.00;67994.34;9987697;29;20056;-65
2021/04/22 03:45:11;;;;;;;16.95;2.55;;;;;;;-146.18;100.00;67994.34;9988268;29;20106;-66
2021/04/22 03:50:09;;;;;;;20.92;3.65;;;;;;;-146.18;100.00;67994.34;9987240;29;20074;-65
2021/04/22 03:55:07;;;;;;;22.75;3.67;;;;;;;-146.18;100.00;67994.34;9987881;29;20062;-66
2021/04/22 04:00:13;;;;;;;18.77;2.92;;;;;;;-146.18;100.00;67994.34;9988453;29;20055;-70
2021/04/22 04:05:10;;;;;;;28.38;3.25;;;;;;;-146.18;100.00;67994.34;9992812;29;20052;-65
2021/04/22 04:10:09;;;;;;;16.10;2.92;;;;;;;-146.18;100.00;67994.34;9989848;29;20052;-65
2021/04/22 04:15:07;;;;;;;17.73;2.55;;;;;;;-146.18;100.00;67994.34;9987700;29;20055;-66
2021/04/22 04:20:07;;;;;;;18.50;3.13;;;;;;;-146.18;100.00;67994.34;9989004;29;20063;-66
2021/04/22 04:25:04;;;;;;;14.88;2.83;;;;;;;-146.18;100.00;67994.34;9988858;29;20056;-65
2021/04/22 04:30:01;;;;;;;21.10;3.75;;;;;;;-146.18;100.00;67994.34;9990854;29;20076;-65
2021/04/22 04:34:57;;;;;;;19.48;3.30;;;;;;;-146.18;100.00;67994.34;9986895;29;20068;-65
2021/04/22 04:39:53;;;;;;;16.23;3.42;;;;;;;-146.18;100.00;67994.34;9981411;29;20052;-65
2021/04/22 04:44:49;;;;;;;20.15;2.85;;;;;;;-146.18;100.00;67994.34;9985194;29;20063;-65
2021/04/22 04:49:45;;;;;;;24.60;4.07;;;;;;;-146.18;100.00;67994.34;9989049;29;20099;-66
2021/04/22 04:54:41;;;;;;;17.88;2.60;;;;;;;-146.18;100.00;67994.34;9983094;29;20052;-67
2021/04/22 04:59:37;;;;;;;24.60;2.90;;;;;;;-146.18;100.00;67994.34;9980741;29;20119;-65
2021/04/22 05:04:33;;;;;;;11.98;1.83;;;;;;;-146.18;100.00;67994.34;9986448;29;20115;-66
2021/04/22 05:09:29;;;;;;;24.23;3.33;;;;;;;-146.18;100.00;67994.34;9981804;29;20083;-66
2021/04/22 05:14:25;;;;;;;17.98;2.78;;;;;;;-146.18;100.00;67994.34;9988354;29;20044;-68
2021/04/22 05:19:21;;;;;;;19.42;2.80;;;;;;;-146.18;100.00;67994.34;9988494;29;20147;-67
2021/04/22 05:24:17;;;;;;;14.18;2.55;;;;;;;-146.18;100.00;67994.34;9987881;29;20051;-66
2021/04/22 05:29:13;;;;;;;17.48;2.97;;;;;;;-146.18;100.00;67994.34;9987540;29;20140;-67
2021/04/22 05:34:09;;;;;;;26.90;3.50;;;;;;;-146.18;100.00;67994.34;9984126;29;20760;-67
2021/04/22 05:39:06;;;;;;;17.80;2.22;;;;;;;-146.18;100.00;67994.34;9989203;29;20051;-67
2021/04/22 05:44:02;;;;;;;14.43;2.40;;;;;;;-146.18;100.00;67994.34;9984340;29;20048;-66
2021/04/22 05:48:58;;;;;;;19.33;3.58;;;;;;;-146.18;100.00;67994.34;9988350;29;20113;-67
2021/04/22 05:53:54;;;;;;;10.73;2.03;;;;;;;-146.18;100.00;67994.34;9983920;29;20475;-66
2021/04/22 05:58:50;;;;;;;15.50;2.65;;;;;;;-146.18;100.00;67994.34;9986416;29;20434;-66
2021/04/22 06:03:46;;;;;;;19.00;3.05;;;;;;;-146.18;100.00;67994.34;9985969;29;20051;-67
2021/04/22 06:08:42;;;;;;;15.57;3.10;;;;;;;-146.18;100.00;67994.34;9988544;29;20048;-66
2021/04/22 06:13:39;;;;;;;19.63;3.30;;;;;;;-146.18;100.00;67994.34;9984788;29;20068;-67
2021/04/22 06:18:35;;;;;;;13.82;2.38;;;;;;;-146.18;100.00;67994.34;9979469;29;20052;-66
2021/04/22 06:23:31;;;;;;;23.17;3.33;;;;;;;-146.18;100.00;67994.34;9985600;29;20511;-66
2021/04/22 06:28:27;;;;;;;19.38;2.80;;;;;;;-146.18;100.00;67994.34;9981914;29;20051;-65
2021/04/22 06:33:23;;;;;;;13.85;2.58;;;;;;;-146.18;100.00;67994.34;9985153;29;20059;-67
2021/04/22 06:38:19;;;;;;;13.50;2.25;;;;;;;-146.18;100.00;67994.34;9991118;29;20494;-63
2021/04/22 06:43:16;;;;;;;17.42;3.22;;;;;;;-146.18;100.00;67994.34;9993495;29;20056;-67
2021/04/22 06:48:14;;;;;;;15.52;2.75;;;;;;;-146.18;100.00;67994.34;9988128;29;20808;-66
2021/04/22 06:53:11;;;;;;;21.35;3.35;;;;;;;-146.18;100.00;67994.34;9974726;29;20454;-67
2021/04/22 06:58:07;;;;;;;22.20;3.70;;;;;;;-146.18;100.00;67994.34;9993409;29;20471;-66
2021/04/22 07:03:04;;;;;;;22.65;2.67;;;;;;;-146.18;100.00;67994.34;9993428;29;20459;-66
2021/04/22 07:08:00;;;;;;;21.70;3.95;;;;;;;-146.18;100.00;67994.34;9986196;29;20468;-69
2021/04/22 07:12:57;;;;;;;23.70;3.55;;;;;;;-146.18;100.00;67994.34;9993142;29;20094;-66
2021/04/22 07:17:53;;;;;;;18.92;2.92;;;;;;;-146.18;100.00;67994.34;9991396;29;20071;-66
2021/04/22 07:22:51;;;;;;;19.42;2.85;;;;;;;-146.18;100.00;67994.34;9992009;29;20095;-66
2021/04/22 07:27:47;;;;;;;13.68;2.53;;;;;;;-146.18;100.00;67994.34;9986960;29;20103;-67
2021/04/22 07:32:44;;;;;;;23.08;3.25;;;;;;;-146.18;100.00;67994.34;9989723;29;20044;-66
2021/04/22 07:37:41;;;;;;;19.58;2.95;;;;;;;-146.18;100.00;67994.34;9981676;29;20712;-66
2021/04/22 07:42:38;;;;;;;17.88;2.55;;;;;;;-146.18;100.00;67994.34;9989715;29;20096;-66
2021/04/22 07:47:35;;;;;;;20.80;3.22;;;;;;;-146.18;100.00;67994.34;9990636;29;20048;-66
2021/04/22 07:52:31;;;;;;;15.25;2.28;;;;;;;-146.18;100.00;67994.34;9990792;29;20455;-68
2021/04/22 07:57:27;;;;;;;18.75;3.53;;;;;;;-146.18;100.00;67994.34;9990587;29;20510;-66
2021/04/22 08:02:23;;;;;;;15.05;3.15;;;;;;;-146.18;100.00;67994.34;9989041;29;20056;-66
2021/04/22 08:07:19;;;;;;;21.05;3.22;;;;;;;-146.18;100.00;67994.34;9989910;29;20498;-66
2021/04/22 08:12:15;;;;;;;22.42;4.68;;;;;;;-146.18;100.00;67994.34;9991213;29;20178;-67
2021/04/22 08:17:11;;;;;;;20.33;3.53;;;;;;;-146.18;100.00;67994.34;9987845;29;20056;-66
2021/04/22 08:22:07;;;;;;;13.60;3.28;;;;;;;-146.18;100.00;67994.34;9992568;29;20513;-66
2021/04/22 08:27:03;;;;;;;16.05;2.50;;;;;;;-146.18;100.00;67994.34;9982545;29;20058;-65
2021/04/22 08:31:59;;;;;;;25.25;3.65;;;;;;;-146.18;100.00;67994.34;9989385;29;20088;-66
2021/04/22 08:36:55;;;;;;;15.10;3.80;;;;;;;-146.18;100.00;67994.34;9992530;29;20063;-66
2021/04/22 08:41:54;;;;;;;14.20;3.25;;;;;;;-146.18;100.00;67994.34;9990754;29;20044;-66
2021/04/22 08:46:50;;;;;;;18.17;3.03;;;;;;;-146.18;100.00;67994.34;9986153;29;20079;-66
2021/04/22 08:51:47;;;;;;;16.38;3.22;;;;;;;-146.18;100.00;67994.34;9986238;29;20052;-67
2021/04/22 08:56:44;;;;;;;15.70;3.38;;;;;;;-146.18;100.00;67994.34;9986631;29;20048;-66
2021/04/22 09:01:41;;;;;;;15.20;2.80;;;;;;;-146.18;100.00;67994.34;9984873;29;20107;-67
2021/04/22 09:06:39;;;;;;;28.13;4.30;;;;;;;-146.18;100.00;67994.34;9988164;29;20662;-66
2021/04/22 09:11:46;;;;;;;19.05;3.67;;;;;;;-146.18;100.00;67994.34;9985588;29;20056;-66
2021/04/22 09:16:43;;;;;;;20.77;4.00;;;;;;;-146.18;100.00;67994.34;9987616;29;20047;-66
2021/04/22 09:21:44;;;;;;;16.27;4.57;;;;;;;-146.18;100.00;67994.34;9987651;29;20159;-66
2021/04/22 09:26:46;;;;;;;17.55;3.58;;;;;;;-146.18;100.00;67994.34;9968003;29;20071;-66
2021/04/22 09:31:43;;;;;;;21.50;3.75;;;;;;;-146.18;100.00;67994.34;9983461;29;20724;-66
2021/04/22 09:36:49;;;;;;;17.55;3.47;;;;;;;-146.18;100.00;67994.34;9985777;29;20044;-65
2021/04/22 09:41:47;;;;;;;13.30;2.80;;;;;;;-146.18;100.00;67994.34;9980825;29;20052;-67
2021/04/22 09:46:46;;;;;;;23.90;4.13;;;;;;;-146.18;100.00;67994.34;9984136;29;20147;-67
2021/04/22 09:51:47;;;;;;;15.75;3.75;;;;;;;-146.18;100.00;67994.34;9986210;29;20056;-66
2021/04/22 09:56:53;;;;;;;14.00;3.00;;;;;;;-146.18;100.00;67994.34;9986233;29;20048;-67
2021/04/22 10:02:07;;;;;;;17.50;4.10;;;;;;;-146.18;100.00;67994.34;9984205;29;20116;-67
2021/04/22 10:07:05;;;;;;;18.50;3.50;;;;;;;-146.18;100.00;67994.34;9993774;29;20052;-65
2021/04/22 10:12:02;;;;;;;9.25;2.83;;;;;;;-146.18;100.00;67994.34;9996181;29;20448;-65
2021/04/22 10:17:00;;;;;;;17.27;3.55;;;;;;;-146.18;100.00;67994.34;9991274;29;20550;-64
2021/04/22 10:21:56;;;;;;;9.98;3.38;;;;;;;-146.18;100.00;67994.34;9996650;29;20048;-65
2021/04/22 10:27:01;;;;;;;21.30;3.88;;;;;;;-146.18;100.00;67994.34;9991350;29;20152;-65
2021/04/22 10:31:58;;;;;;;16.15;3.55;;;;;;;-146.18;100.00;67994.34;9992667;29;20052;-66
2021/04/22 10:36:54;;;;;;;12.43;3.08;;;;;;;-146.18;100.00;67994.34;9992737;29;20056;-65
2021/04/22 10:41:52;;;;;;;12.48;3.35;;;;;;;-146.18;100.00;67994.34;9992555;29;20043;-65
2021/04/22 10:46:49;;;;;;;17.55;4.28;;;;;;;-146.18;100.00;67994.34;9990282;29;20055;-64
2021/04/22 10:51:46;;;;;;;10.68;3.40;;;;;;;-146.18;100.00;67994.34;9994145;29;20423;-66
2021/04/22 10:56:42;;;;;;;10.48;2.28;;;;;;;-146.18;100.00;67994.34;9991071;29;20075;-66
2021/04/22 11:01:39;;;;;;;9.25;2.20;;;;;;;-146.18;100.00;67994.34;9993832;29;20044;-65
2021/04/22 11:06:41;;;;;;;17.42;3.78;;;;;;;-146.18;100.00;67994.34;9992768;29;20052;-67
2021/04/22 11:11:37;;;;;;;12.20;2.97;;;;;;;-146.18;100.00;67994.34;9989281;29;20048;-68
2021/04/22 11:16:36;;;;;;;13.57;3.55;;;;;;;-146.18;100.00;67994.34;9991671;29;20048;-67
2021/04/22 11:21:36;;;;;;;14.50;3.80;;;;;;;-146.18;100.00;67994.34;9993525;29;20039;-67
2021/04/22 11:26:35;;;;;;;13.27;3.50;;;;;;;-146.18;100.00;67994.34;9989124;29;20134;-66
2021/04/22 11:31:31;;;;;;;11.13;3.25;;;;;;;-146.18;100.00;67994.34;9992518;29;20044;-66
2021/04/22 11:36:27;;;;;;;9.23;2.80;;;;;;;-146.18;100.00;67994.34;9985849;29;20055;-66
2021/04/22 11:41:26;;;;;;;11.43;3.00;;;;;;;-146.18;100.00;67994.34;9990932;29;20078;-67
2021/04/22 11:46:40;;;;;;;12.85;3.90;;;;;;;-146.18;100.00;67994.34;9988229;29;20052;-67
2021/04/22 11:51:40;;;;;;;16.60;3.50;;;;;;;-146.18;100.00;67994.34;9987396;29;20066;-67
2021/04/22 11:56:36;;;;;;;16.27;4.00;;;;;;;-146.18;100.00;67994.34;9995301;29;20686;-66
2021/04/22 12:01:32;;;;;;;14.25;3.85;;;;;;;-146.18;100.00;67994.34;9987873;29;20200;-67
2021/04/22 12:06:28;;;;;;;17.98;3.28;;;;;;;-146.18;100.00;67994.34;9988738;29;20075;-66
2021/04/22 12:11:26;;;;;;;15.32;3.47;;;;;;;-146.18;100.00;67994.34;9989240;29;20059;-66
2021/04/22 12:16:23;;;;;;;11.25;4.07;;;;;;;-146.18;100.00;67994.34;9989522;29;20052;-66
2021/04/22 12:21:25;;;;;;;14.90;3.67;;;;;;;-146.18;100.00;67994.34;9990942;29;20048;-66
2021/04/22 12:26:32;;;;;;;14.52;3.50;;;;;;;-146.18;100.00;67994.34;9990055;29;20072;-65
2021/04/22 12:31:32;;;;;;;15.32;4.60;;;;;;;-146.18;100.00;67994.34;9983040;29;20151;-66
2021/04/22 12:36:27;;;;;;;13.73;3.83;;;;;;;-146.18;100.00;67994.34;9989965;29;20068;-65
2021/04/22 12:41:23;;;;;;;16.15;4.03;;;;;;;-146.18;100.00;67994.34;9989429;29;20442;-66
2021/04/22 12:46:22;;;;;;;10.40;2.63;;;;;;;-146.18;100.00;67994.34;9985293;29;20052;-66
2021/04/22 12:51:19;;;;;;;14.95;4.38;;;;;;;-146.18;100.00;67994.34;9989174;29;20044;-66
2021/04/22 12:56:16;;;;;;;15.52;3.75;;;;;;;-146.18;100.00;67994.34;9993452;29;20096;-68
2021/04/22 13:01:21;;;;;;;14.98;3.75;;;;;;;-146.18;100.00;67994.34;9979205;29;20060;-67
2021/04/22 13:06:22;;;;;;;11.90;3.92;;;;;;;-146.18;100.00;67994.34;9984426;29;20100;-66
2021/04/22 13:11:24;;;;;;;11.50;2.95;;;;;;;-146.18;100.00;67994.34;9988767;29;20586;-67
2021/04/22 13:16:25;;;;;;;11.23;3.42;;;;;;;-146.18;100.00;67994.34;9989942;29;20056;-66
2021/04/22 13:21:24;;;;;;;13.85;3.28;;;;;;;-146.18;100.00;67994.34;9983867;29;20407;-66
2021/04/22 13:26:30;;;;;;;9.90;3.83;;;;;;;-146.18;100.00;67994.34;9984004;29;20082;-66
2021/04/22 13:31:26;;;;;;;9.80;3.00;;;;;;;-146.18;100.00;67994.34;9983292;29;20048;-65
2021/04/22 13:36:22;;;;;;;8.88;2.70;;;;;;;-146.18;100.00;67994.34;9987933;29;20108;-66
2021/04/22 13:41:19;;;;;;;11.52;3.40;;;;;;;-146.18;100.00;67994.34;9983104;29;20321;-65
2021/04/22 13:46:18;;;;;;;8.43;2.95;;;;;;;-146.18;100.00;67994.34;9984443;29;20080;-67
2021/04/22 13:51:14;;;;;;;8.48;3.42;;;;;;;-146.18;100.00;67994.34;9986061;29;20131;-66
2021/04/22 13:56:10;;;;;;;14.77;3.40;;;;;;;-146.18;100.00;67994.34;9983359;29;20041;-66
2021/04/22 14:01:19;;;;;;;12.05;3.20;;;;;;;-146.18;100.00;67994.34;9986839;29;20459;-66
2021/04/22 14:06:15;;;;;;;10.15;3.10;;;;;;;-146.18;100.00;67994.34;9991109;29;20103;-68
2021/04/22 14:11:17;;;;;;;14.05;3.72;;;;;;;-146.18;100.00;67994.34;9987009;29;20060;-65
2021/04/22 14:16:13;;;;;;;13.27;3.67;;;;;;;-146.18;100.00;67994.34;9985604;29;20052;-66
2021/04/22 14:21:10;;;;;;;13.25;3.22;;;;;;;-146.18;100.00;67994.34;9987248;29;20048;-66
2021/04/22 14:26:06;;;;;;;14.30;3.40;;;;;;;-146.18;100.00;67994.34;9988278;29;20131;-66
2021/04/22 14:31:02;;;;;;;10.88;2.78;;;;;;;-146.18;100.00;67994.34;9986414;29;20052;-66
2021/04/22 14:35:58;;;;;;;10.95;2.80;;;;;;;-146.18;100.00;67994.34;9985947;29;20059;-69
2021/04/22 14:40:54;;;;;;;10.02;2.92;;;;;;;-146.18;100.00;67994.34;9986779;29;20062;-65
2021/04/22 14:45:50;;;;;;;12.02;3.13;;;;;;;-146.18;100.00;67994.34;9985512;29;20048;-65
2021/04/22 14:50:47;;;;;;;11.45;2.90;;;;;;;-146.18;100.00;67994.34;9982327;29;20841;-66
2021/04/22 14:55:42;;;;;;;12.05;4.38;;;;;;;-146.18;100.00;67994.34;9994901;29;20130;-66
2021/04/22 15:00:38;;;;;;;8.85;2.50;;;;;;;-146.18;100.00;67994.34;9994688;29;20058;-66
2021/04/22 15:05:35;;;;;;;13.63;3.60;;;;;;;-146.18;100.00;67994.34;9993854;29;20056;-65
2021/04/22 15:10:31;;;;;;;12.82;3.17;;;;;;;-146.18;100.00;67994.34;9992990;29;20075;-66
2021/04/22 15:15:27;;;;;;;10.95;3.67;;;;;;;-146.18;100.00;67994.34;9990966;29;20089;-66
2021/04/22 15:20:24;;;;;;;10.40;3.33;;;;;;;-146.18;100.00;67994.34;9992896;29;20167;-67
2021/04/22 15:25:20;;;;;;;13.30;3.53;;;;;;;-146.18;100.00;67994.34;9983937;29;20059;-66
2021/04/22 15:30:21;;;;;;;17.95;4.32;;;;;;;-146.18;100.00;67994.34;9993133;29;20096;-65
2021/04/22 15:35:23;;;;;;;20.02;4.60;;;;;;;-146.18;100.00;67994.34;9991160;29;20197;-65
2021/04/22 15:40:21;;;;;;;14.52;3.53;;;;;;;-146.18;100.00;67994.34;9992982;29;20056;-65
2021/04/22 15:45:20;;;;;;;14.13;3.33;;;;;;;-146.18;100.00;67994.34;9989810;29;20056;-64
2021/04/22 15:50:19;;;;;;;11.40;3.47;;;;;;;-146.18;100.00;67994.34;9970578;29;20048;-66
2021/04/22 15:55:16;;;;;;;11.27;4.03;;;;;;;-146.18;100.00;67994.34;9988758;29;20051;-66
2021/04/22 16:00:12;;;;;;;17.98;3.95;;;;;;;-146.18;100.00;67994.34;9993295;29;20048;-65
2021/04/22 16:05:09;;;;;;;15.20;4.55;;;;;;;-146.18;100.00;67994.34;9990446;29;20087;-65
2021/04/22 16:10:07;;;;;;;13.20;4.32;;;;;;;-146.18;100.00;67994.34;9991356;29;20087;-64
2021/04/22 16:15:10;;;;;;;17.15;4.75;;;;;;;-146.18;100.00;67994.34;9991283;29;20306;-65
2021/04/22 16:20:08;;;;;;;17.53;5.83;;;;;;;-146.18;100.00;67994.34;9989242;29;20052;-65
2021/04/22 16:25:07;;;;;;;17.08;6.28;;;;;;;-146.18;100.00;67994.34;9988924;29;20512;-65
2021/04/22 16:30:05;;;;;;;15.90;6.20;;;;;;;-146.18;100.00;67994.34;9992077;29;20056;-66
2021/04/22 16:35:02;;;;;;;13.93;4.13;;;;;;;-146.18;100.00;67994.34;9982748;29;20060;-65
2021/04/22 16:39:58;;;;;;;11.77;4.72;;;;;;;-146.18;100.00;67994.34;9991077;29;20107;-65
2021/04/22 16:44:54;;;;;;;12.82;4.88;;;;;;;-146.18;100.00;67994.34;9988737;29;20054;-64
2021/04/22 16:49:50;;;;;;;14.65;4.45;;;;;;;-146.18;100.00;67994.34;9988021;29;20103;-65
2021/04/22 16:54:46;;;;;;;17.63;6.10;;;;;;;-146.18;100.00;67994.34;9990792;29;20060;-65
2021/04/22 16:59:42;;;;;;;11.32;4.68;;;;;;;-146.18;100.00;67994.34;9987951;29;20738;-65
2021/04/22 17:04:38;;;;;;;17.33;5.15;;;;;;;-146.18;100.00;67994.34;9989987;29;20048;-65
2021/04/22 17:09:34;;;;;;;10.35;4.43;;;;;;;-146.18;100.00;67994.34;9991812;29;20050;-65
2021/04/22 17:14:30;;;;;;;13.98;5.03;;;;;;;-146.18;100.00;67994.34;9983030;29;20044;-66
2021/04/22 17:19:26;;;;;;;15.70;4.75;;;;;;;-146.18;100.00;67994.34;9985872;29;20048;-65
2021/04/22 17:24:22;;;;;;;11.55;4.78;;;;;;;-146.18;100.00;67994.34;9990593;29;20052;-65
2021/04/22 17:29:18;;;;;;;15.63;5.22;;;;;;;-146.18;100.00;67994.34;9988119;29;20055;-65
2021/04/22 17:34:14;;;;;;;21.95;5.90;;;;;;;-146.18;100.00;67994.34;9988204;29;20052;-66
2021/04/22 17:39:12;;;;;;;16.95;6.60;;;;;;;-146.18;100.00;67994.34;9985045;29;20139;-64
2021/04/22 17:44:10;;;;;;;17.38;6.57;;;;;;;-146.18;100.00;67994.34;9988269;29;20054;-67
2021/04/22 17:49:07;;;;;;;15.77;6.05;;;;;;;-146.18;100.00;67994.34;9986540;29;20534;-67
2021/04/22 17:54:03;;;;;;;18.27;6.50;;;;;;;-146.18;100.00;67994.34;9988718;29;20233;-67
2021/04/22 17:58:59;;;;;;;16.52;6.15;;;;;;;-146.18;100.00;67994.34;9981782;29;20048;-67
2021/04/22 18:03:55;;;;;;;13.93;5.22;;;;;;;-146.18;100.00;67994.34;9988415;29;20051;-68
2021/04/22 18:08:54;;;;;;;18.80;6.78;;;;;;;-146.18;100.00;67994.34;9988833;29;20517;-67
2021/04/22 18:13:50;;;;;;;18.98;7.82;;;;;;;-146.18;100.00;67994.34;9981007;29;20048;-67
2021/04/22 18:18:46;;;;;;;21.90;6.95;;;;;;;-146.18;100.00;67994.34;9987496;29;20054;-67
2021/04/22 18:23:43;;;;;;;24.45;8.07;;;;;;;-146.18;100.00;67994.34;9989338;29;20127;-66
2021/04/22 18:28:39;;;;;;;23.67;7.80;;;;;;;-146.18;100.00;67994.34;9995903;29;20055;-66
2021/04/22 18:33:36;;;;;;;19.38;6.65;;;;;;;-146.18;100.00;67994.34;9993172;29;20048;-66
2021/04/22 18:38:32;;;;;;;18.88;7.47;;;;;;;-146.18;100.00;67994.34;9997730;29;22211;-67
2021/04/22 18:43:28;;;;;;;18.25;7.22;;;;;;;-146.18;100.00;67994.34;9994362;29;20059;-67
2021/04/22 18:48:24;;;;;;;22.48;6.93;;;;;;;-146.18;100.00;67994.34;9992097;29;20048;-67
2021/04/22 18:53:20;;;;;;;15.77;6.25;;;;;;;-146.18;100.00;67994.34;9996536;29;20052;-66
2021/04/22 18:58:16;;;;;;;23.40;7.18;;;;;;;-146.18;100.00;67994.34;9992938;29;20044;-65
2021/04/22 19:03:13;;;;;;;17.80;7.15;;;;;;;-146.18;100.00;67994.34;9992655;29;20052;-68
2021/04/22 19:08:09;;;;;;;21.00;8.40;;;;;;;-146.18;100.00;67994.34;9987634;29;20052;-67
2021/04/22 19:13:05;;;;;;;26.23;7.53;;;;;;;-146.18;100.00;67994.34;9992679;29;20507;-68
2021/04/22 19:18:03;;;;;;;26.60;9.68;;;;;;;-146.18;100.00;67994.34;9992325;29;20052;-67
2021/04/22 19:23:02;;;;;;;22.63;8.00;;;;;;;-146.18;100.00;67994.34;9988970;29;20750;-66
2021/04/22 19:27:58;;;;;;;24.83;8.68;;;;;;;-146.18;100.00;67994.34;9984407;29;20048;-67
2021/04/22 19:32:55;;;;;;;22.33;7.72;;;;;;;-146.18;100.00;67994.34;9988851;29;20056;-67
2021/04/22 19:38:15;;;;;;;22.67;7.70;;;;;;;-146.18;100.00;67994.34;9982141;29;20091;-67
2021/04/22 19:43:13;;;;;;;18.25;7.15;;;;;;;-146.18;100.00;67994.34;9983480;29;20053;-66
2021/04/22 19:48:13;;;;;;;18.90;6.53;;;;;;;-146.18;100.00;67994.34;9989494;29;20052;-67
2021/04/22 19:53:09;;;;;;;22.25;7.38;;;;;;;-146.18;100.00;67994.34;9989172;29;20044;-67
2021/04/22 19:58:06;;;;;;;20.10;7.30;;;;;;;-146.18;100.00;67994.34;9989750;29;20060;-67
2021/04/22 20:03:04;;;;;;;18.02;6.95;;;;;;;-146.18;100.00;67994.34;9989352;29;20099;-67
2021/04/22 20:08:00;;;;;;;21.90;7.10;;;;;;;-146.18;100.00;67994.34;9972831;29;20107;-66
2021/04/22 20:13:00;;;;;;;16.35;6.78;;;;;;;-146.18;100.00;67994.34;9973386;29;20175;-67
2021/04/22 20:17:56;;;;;;;20.27;7.13;;;;;;;-146.18;100.00;67994.34;9992333;29;20151;-67
2021/04/22 20:22:55;;;;;;;23.55;7.32;;;;;;;-146.18;100.00;67994.34;9989421;29;20659;-67
2021/04/22 20:27:52;;;;;;;25.40;8.07;;;;;;;-146.18;100.00;67994.34;9988908;29;20052;-67
2021/04/22 20:32:48;;;;;;;24.38;6.72;;;;;;;-146.18;100.00;67994.34;9986448;29;20044;-68
2021/04/22 20:37:45;;;;;;;21.38;5.95;;;;;;;-146.18;100.00;67994.34;9982517;29;20051;-67
2021/04/22 20:42:42;;;;;;;19.50;6.15;;;;;;;-146.18;100.00;67994.34;9991091;29;20103;-67
2021/04/22 20:47:41;;;;;;;21.88;6.85;;;;;;;-146.18;100.00;67994.34;9982923;29;20080;-68
2021/04/22 20:52:37;;;;;;;23.13;6.85;;;;;;;-146.18;100.00;67994.34;9991609;29;20146;-67
2021/04/22 20:57:34;;;;;;;23.23;7.20;;;;;;;-146.18;100.00;67994.34;9983837;29;20075;-67
2021/04/22 21:02:30;;;;;;;18.55;6.75;;;;;;;-146.18;100.00;67994.34;9990906;29;20127;-67
2021/04/22 21:07:26;;;;;;;22.27;6.22;;;;;;;-146.18;100.00;67994.34;9988615;29;20131;-66
2021/04/22 21:12:22;;;;;;;23.17;6.85;;;;;;;-146.18;100.00;67994.34;9984620;29;20523;-66
2021/04/22 21:17:18;;;;;;;19.70;7.07;;;;;;;-146.18;100.00;67994.34;9979823;29;20543;-67
2021/04/22 21:22:14;;;;;;;31.05;5.90;;;;;;;-146.18;100.00;67994.34;9988291;29;20644;-66
2021/04/22 21:27:11;;;;;;;19.02;6.85;;;;;;;-146.18;100.00;67994.34;9983016;29;20170;-68
2021/04/22 21:32:13;;;;;;;18.95;6.07;;;;;;;-146.18;100.00;67994.34;9987882;29;20047;-67
2021/04/22 21:37:11;;;;;;;19.67;7.00;;;;;;;-146.18;100.00;67994.34;9985005;29;20048;-68
2021/04/22 21:42:09;;;;;;;24.92;6.63;;;;;;;-146.18;100.00;67994.34;9988183;29;20059;-68
2021/04/22 21:47:08;;;;;;;25.00;6.47;;;;;;;-146.18;100.00;67994.34;9979700;29;20123;-67
2021/04/22 21:52:10;;;;;;;21.77;6.22;;;;;;;-146.18;100.00;67994.34;9984903;29;20112;-67
2021/04/22 21:57:06;;;;;;;18.45;6.28;;;;;;;-146.18;100.00;67994.34;9989993;29;20699;-67
2021/04/22 22:02:04;;;;;;;20.88;5.85;;;;;;;-146.18;100.00;67994.34;9989927;29;20098;-67
2021/04/22 22:07:01;;;;;;;19.13;7.18;;;;;;;-146.18;100.00;67994.34;9996692;29;20119;-66
2021/04/22 22:11:59;;;;;;;22.80;6.45;;;;;;;-146.18;100.00;67994.34;9994304;29;20119;-66
2021/04/22 22:16:55;;;;;;;24.50;8.50;;;;;;;-146.18;100.00;67994.34;9985711;29;20083;-67